THY2XD LTFM-LOWW
Flight info
| Callsign | THY2XD |
|---|---|
| Flight time | 1h 39m |
| Altitude | 38000 |
| Route | TUDBU1E/36 TUDBU DCT ETUBA DCT APROB DCT BALUX DCT TORNO DCT NATEX NATEX2W |
| Aircraft | B77W/H-SDE1E2E3FGHIJ2J3J4J5M1RWXY/LB1D1 |
Departure
| Time | 2026-05-05 16:13 |
|---|---|
| Airport | İstanbul Airport (LTFM) |
Arrival
| Time | 2026-05-05 17:53 |
|---|---|
| Airport | Vienna International Airport (LOWW) |
| Time | Latitude | Longitude | Altitude | Speed | Heading |
|---|---|---|---|---|---|
| 2026-05-05 15:33 | 41.26810 | 28.75047 | 336 ft | 0 kts | 271° |
| 2026-05-05 16:01 | 41.26810 | 28.75049 | 339 ft | 2 kts | 271° |
| 2026-05-05 16:01 | 41.26807 | 28.75081 | 336 ft | 4 kts | 291° |
| 2026-05-05 16:01 | 41.26799 | 28.75104 | 333 ft | 4 kts | 291° |
| 2026-05-05 16:02 | 41.26797 | 28.75113 | 333 ft | 0 kts | 281° |
| 2026-05-05 16:02 | 41.26811 | 28.75038 | 339 ft | 0 kts | 269° |
| 2026-05-05 16:05 | 41.26810 | 28.75066 | 334 ft | 4 kts | 284° |
| 2026-05-05 16:05 | 41.26802 | 28.75098 | 334 ft | 2 kts | 293° |
| 2026-05-05 16:05 | 41.26795 | 28.75126 | 334 ft | 4 kts | 261° |
| 2026-05-05 16:05 | 41.26806 | 28.75150 | 334 ft | 4 kts | 196° |
| 2026-05-05 16:06 | 41.26830 | 28.75152 | 334 ft | 2 kts | 179° |
| 2026-05-05 16:06 | 41.26831 | 28.75152 | 334 ft | 2 kts | 179° |
| 2026-05-05 16:08 | 41.26813 | 28.75153 | 335 ft | 4 kts | 180° |
| 2026-05-05 16:08 | 41.26774 | 28.75153 | 334 ft | 11 kts | 178° |
| 2026-05-05 16:09 | 41.26669 | 28.75156 | 337 ft | 12 kts | 180° |
| 2026-05-05 16:09 | 41.26587 | 28.75126 | 335 ft | 12 kts | 194° |
| 2026-05-05 16:09 | 41.26505 | 28.75096 | 335 ft | 12 kts | 198° |
| 2026-05-05 16:09 | 41.26423 | 28.75061 | 336 ft | 12 kts | 198° |
| 2026-05-05 16:10 | 41.26342 | 28.75027 | 336 ft | 12 kts | 197° |
| 2026-05-05 16:10 | 41.26262 | 28.75015 | 335 ft | 12 kts | 157° |
| 2026-05-05 16:10 | 41.26244 | 28.75114 | 339 ft | 12 kts | 89° |
| 2026-05-05 16:10 | 41.26244 | 28.75222 | 339 ft | 12 kts | 89° |
| 2026-05-05 16:11 | 41.26247 | 28.75347 | 339 ft | 15 kts | 89° |
| 2026-05-05 16:11 | 41.26282 | 28.75660 | 337 ft | 8 kts | 13° |
| 2026-05-05 16:12 | 41.26341 | 28.75662 | 335 ft | 10 kts | 359° |
| 2026-05-05 16:12 | 41.27204 | 28.75646 | 334 ft | 137 kts | 359° |
| 2026-05-05 16:13 | 41.30704 | 28.76620 | 2191 ft | 195 kts | 51° |
| 2026-05-05 16:13 | 41.31601 | 28.78077 | 2540 ft | 219 kts | 32° |
| 2026-05-05 16:13 | 41.33073 | 28.78867 | 2950 ft | 236 kts | 19° |
| 2026-05-05 16:14 | 41.36250 | 28.78999 | 4505 ft | 246 kts | 326° |
| 2026-05-05 16:14 | 41.38418 | 28.75365 | 6319 ft | 256 kts | 310° |
| 2026-05-05 16:15 | 41.40579 | 28.71582 | 8316 ft | 259 kts | 311° |
| 2026-05-05 16:15 | 41.42834 | 28.67746 | 10230 ft | 267 kts | 313° |
| 2026-05-05 16:16 | 41.45352 | 28.63548 | 10987 ft | 319 kts | 313° |
| 2026-05-05 16:16 | 41.48349 | 28.58581 | 12136 ft | 358 kts | 312° |
| 2026-05-05 16:17 | 41.51532 | 28.53295 | 14277 ft | 372 kts | 312° |
| 2026-05-05 16:17 | 41.53166 | 28.50585 | 15274 ft | 378 kts | 312° |
| 2026-05-05 16:18 | 41.56520 | 28.45025 | 17294 ft | 390 kts | 311° |
| 2026-05-05 16:18 | 41.58233 | 28.42184 | 18278 ft | 397 kts | 311° |
| 2026-05-05 16:18 | 41.61749 | 28.36346 | 19954 ft | 410 kts | 311° |
| 2026-05-05 16:19 | 41.63563 | 28.33333 | 19894 ft | 418 kts | 311° |
| 2026-05-05 16:19 | 41.65365 | 28.30329 | 19947 ft | 410 kts | 311° |
| 2026-05-05 16:19 | 41.68901 | 28.24429 | 20053 ft | 407 kts | 311° |
| 2026-05-05 16:20 | 41.72479 | 28.18460 | 20676 ft | 416 kts | 311° |
| 2026-05-05 16:20 | 41.76120 | 28.12371 | 22501 ft | 423 kts | 311° |
| 2026-05-05 16:21 | 41.79842 | 28.06134 | 23958 ft | 435 kts | 310° |
| 2026-05-05 16:22 | 41.85644 | 27.96381 | 25611 ft | 456 kts | 310° |
| 2026-05-05 16:22 | 41.89636 | 27.89649 | 26868 ft | 465 kts | 310° |
| 2026-05-05 16:23 | 41.93710 | 27.82766 | 27976 ft | 475 kts | 310° |
| 2026-05-05 16:23 | 41.95766 | 27.79290 | 28641 ft | 476 kts | 310° |
| 2026-05-05 16:23 | 42.00263 | 27.72659 | 29525 ft | 485 kts | 316° |
| 2026-05-05 16:24 | 42.02649 | 27.69430 | 29942 ft | 489 kts | 316° |
| 2026-05-05 16:24 | 42.05062 | 27.66178 | 30331 ft | 492 kts | 316° |
| 2026-05-05 16:24 | 42.09860 | 27.59663 | 31642 ft | 482 kts | 316° |
| 2026-05-05 16:25 | 42.12182 | 27.56480 | 32517 ft | 474 kts | 316° |
| 2026-05-05 16:25 | 42.16832 | 27.50082 | 33073 ft | 484 kts | 316° |
| 2026-05-05 16:25 | 42.19162 | 27.46866 | 33469 ft | 484 kts | 316° |
| 2026-05-05 16:26 | 42.23837 | 27.40399 | 34558 ft | 478 kts | 315° |
| 2026-05-05 16:26 | 42.28438 | 27.34021 | 35629 ft | 470 kts | 315° |
| 2026-05-05 16:27 | 42.30716 | 27.30859 | 36058 ft | 469 kts | 315° |
| 2026-05-05 16:27 | 42.32986 | 27.27706 | 36455 ft | 468 kts | 315° |
| 2026-05-05 16:27 | 42.35254 | 27.24552 | 36876 ft | 467 kts | 315° |
| 2026-05-05 16:27 | 42.37511 | 27.21411 | 37283 ft | 465 kts | 315° |
| 2026-05-05 16:28 | 42.39761 | 27.18274 | 37706 ft | 463 kts | 315° |
| 2026-05-05 16:28 | 42.41994 | 27.15159 | 38075 ft | 462 kts | 315° |
| 2026-05-05 16:28 | 42.46475 | 27.08896 | 38050 ft | 466 kts | 315° |
| 2026-05-05 16:29 | 42.50960 | 27.02614 | 38033 ft | 462 kts | 315° |
| 2026-05-05 16:29 | 42.55411 | 26.96365 | 38039 ft | 459 kts | 315° |
| 2026-05-05 16:30 | 42.59839 | 26.90135 | 38053 ft | 458 kts | 315° |
| 2026-05-05 16:30 | 42.64248 | 26.83918 | 38031 ft | 457 kts | 315° |
| 2026-05-05 16:31 | 42.68662 | 26.77681 | 38024 ft | 458 kts | 315° |
| 2026-05-05 16:31 | 42.73074 | 26.71433 | 38012 ft | 459 kts | 315° |
| 2026-05-05 16:32 | 42.77490 | 26.65164 | 38013 ft | 459 kts | 315° |
| 2026-05-05 16:32 | 42.81906 | 26.58888 | 38012 ft | 459 kts | 315° |
| 2026-05-05 16:33 | 42.86426 | 26.52758 | 38003 ft | 459 kts | 317° |
| 2026-05-05 16:33 | 42.91004 | 26.46693 | 38013 ft | 459 kts | 317° |
| 2026-05-05 16:34 | 42.95574 | 26.40601 | 38012 ft | 459 kts | 316° |
| 2026-05-05 16:34 | 43.00132 | 26.34475 | 38013 ft | 460 kts | 316° |
| 2026-05-05 16:35 | 43.04655 | 26.28370 | 38013 ft | 460 kts | 316° |
| 2026-05-05 16:35 | 43.09210 | 26.22209 | 38009 ft | 461 kts | 316° |
| 2026-05-05 16:36 | 43.13763 | 26.16037 | 38000 ft | 461 kts | 316° |
| 2026-05-05 16:36 | 43.18318 | 26.09849 | 38000 ft | 461 kts | 316° |
| 2026-05-05 16:37 | 43.22867 | 26.03655 | 37995 ft | 461 kts | 316° |
| 2026-05-05 16:37 | 43.27409 | 25.97458 | 37988 ft | 460 kts | 316° |
| 2026-05-05 16:38 | 43.31178 | 25.92305 | 37998 ft | 459 kts | 316° |
| 2026-05-05 16:38 | 43.35701 | 25.86108 | 38000 ft | 459 kts | 316° |
| 2026-05-05 16:39 | 43.40220 | 25.79903 | 38000 ft | 459 kts | 316° |
| 2026-05-05 16:39 | 43.44735 | 25.73689 | 37997 ft | 459 kts | 316° |
| 2026-05-05 16:40 | 43.49251 | 25.67460 | 37995 ft | 459 kts | 316° |
| 2026-05-05 16:40 | 43.53762 | 25.61224 | 37999 ft | 459 kts | 316° |
| 2026-05-05 16:41 | 43.58271 | 25.54978 | 37977 ft | 460 kts | 316° |
| 2026-05-05 16:41 | 43.62774 | 25.48724 | 37988 ft | 459 kts | 316° |
| 2026-05-05 16:42 | 43.67269 | 25.42468 | 37994 ft | 459 kts | 316° |
| 2026-05-05 16:42 | 43.71766 | 25.36196 | 37990 ft | 459 kts | 316° |
| 2026-05-05 16:43 | 43.76263 | 25.29908 | 37984 ft | 459 kts | 316° |
| 2026-05-05 16:43 | 43.80749 | 25.23621 | 37990 ft | 459 kts | 316° |
| 2026-05-05 16:44 | 43.85201 | 25.17369 | 37992 ft | 459 kts | 316° |
| 2026-05-05 16:44 | 43.89682 | 25.11061 | 37988 ft | 459 kts | 316° |
| 2026-05-05 16:45 | 43.94163 | 25.04738 | 37975 ft | 459 kts | 316° |
| 2026-05-05 16:45 | 43.98590 | 24.98357 | 37980 ft | 459 kts | 314° |
| 2026-05-05 16:46 | 44.02800 | 24.91758 | 37981 ft | 459 kts | 312° |
| 2026-05-05 16:46 | 44.06991 | 24.85062 | 37979 ft | 459 kts | 312° |
| 2026-05-05 16:47 | 44.11186 | 24.78374 | 37972 ft | 459 kts | 312° |
| 2026-05-05 16:47 | 44.15390 | 24.71686 | 37980 ft | 458 kts | 312° |
| 2026-05-05 16:48 | 44.19585 | 24.65009 | 37972 ft | 458 kts | 312° |
| 2026-05-05 16:48 | 44.23775 | 24.58325 | 37977 ft | 458 kts | 312° |
| 2026-05-05 16:49 | 44.27960 | 24.51633 | 37972 ft | 458 kts | 312° |
| 2026-05-05 16:49 | 44.32140 | 24.44932 | 37976 ft | 458 kts | 312° |
| 2026-05-05 16:50 | 44.36320 | 24.38215 | 37973 ft | 458 kts | 312° |
| 2026-05-05 16:50 | 44.40495 | 24.31490 | 37975 ft | 458 kts | 312° |
| 2026-05-05 16:51 | 44.44669 | 24.24751 | 37975 ft | 458 kts | 312° |
| 2026-05-05 16:51 | 44.48837 | 24.18005 | 37982 ft | 458 kts | 312° |
| 2026-05-05 16:52 | 44.52974 | 24.11294 | 37974 ft | 458 kts | 312° |
| 2026-05-05 16:52 | 44.57132 | 24.04533 | 37977 ft | 458 kts | 312° |
| 2026-05-05 16:53 | 44.61286 | 23.97761 | 37976 ft | 458 kts | 311° |
| 2026-05-05 16:53 | 44.65438 | 23.90978 | 37975 ft | 458 kts | 311° |
| 2026-05-05 16:54 | 44.69585 | 23.84184 | 37970 ft | 458 kts | 311° |
| 2026-05-05 16:54 | 44.73734 | 23.77372 | 37967 ft | 458 kts | 311° |
| 2026-05-05 16:55 | 44.77875 | 23.70557 | 37966 ft | 458 kts | 311° |
| 2026-05-05 16:55 | 44.82012 | 23.63732 | 37965 ft | 458 kts | 311° |
| 2026-05-05 16:56 | 44.86135 | 23.56914 | 37966 ft | 457 kts | 311° |
| 2026-05-05 16:56 | 44.90254 | 23.50085 | 37963 ft | 457 kts | 311° |
| 2026-05-05 16:57 | 44.94366 | 23.43254 | 37970 ft | 456 kts | 311° |
| 2026-05-05 16:57 | 44.98444 | 23.36461 | 37972 ft | 456 kts | 311° |
| 2026-05-05 16:58 | 45.02544 | 23.29613 | 37967 ft | 456 kts | 311° |
| 2026-05-05 16:58 | 45.06638 | 23.22761 | 37979 ft | 456 kts | 311° |
| 2026-05-05 16:59 | 45.10728 | 23.15897 | 37977 ft | 456 kts | 311° |
| 2026-05-05 16:59 | 45.14814 | 23.09025 | 37975 ft | 456 kts | 311° |
| 2026-05-05 17:00 | 45.18895 | 23.02144 | 37996 ft | 456 kts | 311° |
| 2026-05-05 17:00 | 45.22974 | 22.95249 | 37986 ft | 456 kts | 311° |
| 2026-05-05 17:01 | 45.27052 | 22.88338 | 37994 ft | 457 kts | 310° |
| 2026-05-05 17:01 | 45.31133 | 22.81408 | 37987 ft | 458 kts | 310° |
| 2026-05-05 17:02 | 45.35181 | 22.74513 | 37997 ft | 457 kts | 310° |
| 2026-05-05 17:02 | 45.39258 | 22.67554 | 37997 ft | 457 kts | 310° |
| 2026-05-05 17:03 | 45.43335 | 22.60579 | 37979 ft | 459 kts | 310° |
| 2026-05-05 17:03 | 45.47419 | 22.53572 | 37980 ft | 460 kts | 310° |
| 2026-05-05 17:04 | 45.51498 | 22.46557 | 37985 ft | 460 kts | 310° |
| 2026-05-05 17:04 | 45.55580 | 22.39518 | 37973 ft | 460 kts | 310° |
| 2026-05-05 17:05 | 45.59653 | 22.32479 | 37970 ft | 460 kts | 310° |
| 2026-05-05 17:05 | 45.63723 | 22.25426 | 37950 ft | 460 kts | 310° |
| 2026-05-05 17:06 | 45.67767 | 22.18401 | 37959 ft | 460 kts | 310° |
| 2026-05-05 17:06 | 45.71829 | 22.11326 | 37953 ft | 460 kts | 310° |
| 2026-05-05 17:07 | 45.75894 | 22.04229 | 37945 ft | 461 kts | 309° |
| 2026-05-05 17:07 | 45.79950 | 21.97129 | 37944 ft | 460 kts | 309° |
| 2026-05-05 17:08 | 45.84005 | 21.90011 | 37939 ft | 460 kts | 309° |
| 2026-05-05 17:08 | 45.88055 | 21.82887 | 37939 ft | 461 kts | 309° |
| 2026-05-05 17:09 | 45.92099 | 21.75755 | 37935 ft | 461 kts | 309° |
| 2026-05-05 17:09 | 45.96140 | 21.68608 | 37936 ft | 461 kts | 309° |
| 2026-05-05 17:10 | 46.00182 | 21.61441 | 37937 ft | 461 kts | 309° |
| 2026-05-05 17:10 | 46.04198 | 21.54304 | 37933 ft | 462 kts | 309° |
| 2026-05-05 17:11 | 46.08238 | 21.47104 | 37930 ft | 462 kts | 309° |
| 2026-05-05 17:11 | 46.12275 | 21.39891 | 37940 ft | 463 kts | 308° |
| 2026-05-05 17:12 | 46.16318 | 21.32650 | 37940 ft | 463 kts | 308° |
| 2026-05-05 17:12 | 46.20357 | 21.25396 | 37941 ft | 464 kts | 308° |
| 2026-05-05 17:13 | 46.24397 | 21.18121 | 37939 ft | 464 kts | 308° |
| 2026-05-05 17:13 | 46.28438 | 21.10825 | 37938 ft | 465 kts | 308° |
| 2026-05-05 17:14 | 46.32477 | 21.03514 | 37930 ft | 465 kts | 308° |
| 2026-05-05 17:14 | 46.36514 | 20.96187 | 37925 ft | 465 kts | 308° |
| 2026-05-05 17:15 | 46.40543 | 20.88856 | 37922 ft | 465 kts | 308° |
| 2026-05-05 17:15 | 46.44572 | 20.81505 | 37917 ft | 465 kts | 308° |
| 2026-05-05 17:16 | 46.48595 | 20.74145 | 37914 ft | 465 kts | 308° |
| 2026-05-05 17:16 | 46.52614 | 20.66772 | 37914 ft | 465 kts | 308° |
| 2026-05-05 17:17 | 46.56628 | 20.59392 | 37920 ft | 466 kts | 307° |
| 2026-05-05 17:17 | 46.60612 | 20.52045 | 37915 ft | 466 kts | 307° |
| 2026-05-05 17:18 | 46.64617 | 20.44639 | 37916 ft | 466 kts | 307° |
| 2026-05-05 17:18 | 46.68621 | 20.37216 | 37915 ft | 466 kts | 307° |
| 2026-05-05 17:19 | 46.72619 | 20.29786 | 37916 ft | 466 kts | 307° |
| 2026-05-05 17:19 | 46.76614 | 20.22339 | 37915 ft | 466 kts | 307° |
| 2026-05-05 17:20 | 46.80604 | 20.14883 | 37913 ft | 466 kts | 307° |
| 2026-05-05 17:20 | 46.84593 | 20.07407 | 37914 ft | 466 kts | 307° |
| 2026-05-05 17:21 | 46.88573 | 19.99928 | 37918 ft | 466 kts | 307° |
| 2026-05-05 17:22 | 46.94531 | 19.88695 | 37912 ft | 466 kts | 307° |
| 2026-05-05 17:22 | 46.98469 | 19.81244 | 37912 ft | 466 kts | 307° |
| 2026-05-05 17:23 | 47.02430 | 19.73732 | 37916 ft | 466 kts | 307° |
| 2026-05-05 17:23 | 47.06384 | 19.66210 | 37915 ft | 466 kts | 307° |
| 2026-05-05 17:24 | 47.10334 | 19.58677 | 37919 ft | 466 kts | 307° |
| 2026-05-05 17:24 | 47.14280 | 19.51129 | 37908 ft | 466 kts | 307° |
| 2026-05-05 17:25 | 47.18221 | 19.43571 | 37908 ft | 466 kts | 306° |
| 2026-05-05 17:25 | 47.22156 | 19.36003 | 37912 ft | 466 kts | 306° |
| 2026-05-05 17:26 | 47.26083 | 19.28429 | 37909 ft | 466 kts | 306° |
| 2026-05-05 17:26 | 47.30010 | 19.20836 | 37912 ft | 466 kts | 306° |
| 2026-05-05 17:27 | 47.33826 | 19.13135 | 37916 ft | 465 kts | 301° |
| 2026-05-05 17:27 | 47.36781 | 19.04682 | 37919 ft | 464 kts | 294° |
| 2026-05-05 17:28 | 47.38994 | 18.97469 | 37914 ft | 464 kts | 293° |
| 2026-05-05 17:28 | 47.41666 | 18.88803 | 37904 ft | 464 kts | 294° |
| 2026-05-05 17:29 | 47.44360 | 18.80146 | 37906 ft | 464 kts | 294° |
| 2026-05-05 17:29 | 47.47055 | 18.71485 | 37902 ft | 464 kts | 294° |
| 2026-05-05 17:30 | 47.49721 | 18.62881 | 37804 ft | 463 kts | 293° |
| 2026-05-05 17:30 | 47.51048 | 18.58590 | 37503 ft | 455 kts | 294° |
| 2026-05-05 17:30 | 47.52352 | 18.54365 | 36944 ft | 450 kts | 293° |
| 2026-05-05 17:30 | 47.53641 | 18.50153 | 36002 ft | 448 kts | 292° |
| 2026-05-05 17:31 | 47.54752 | 18.45830 | 34676 ft | 450 kts | 287° |
| 2026-05-05 17:31 | 47.55700 | 18.41398 | 33142 ft | 458 kts | 286° |
| 2026-05-05 17:31 | 47.56658 | 18.36791 | 32089 ft | 473 kts | 286° |
| 2026-05-05 17:31 | 47.57626 | 18.32125 | 31573 ft | 474 kts | 286° |
| 2026-05-05 17:32 | 47.58593 | 18.27496 | 31168 ft | 472 kts | 285° |
| 2026-05-05 17:32 | 47.59574 | 18.22822 | 30637 ft | 473 kts | 286° |
| 2026-05-05 17:32 | 47.60552 | 18.18176 | 30242 ft | 472 kts | 285° |
| 2026-05-05 17:32 | 47.61527 | 18.13549 | 29914 ft | 469 kts | 286° |
| 2026-05-05 17:33 | 47.62474 | 18.09055 | 29603 ft | 451 kts | 285° |
| 2026-05-05 17:33 | 47.63403 | 18.04641 | 28701 ft | 442 kts | 285° |
| 2026-05-05 17:33 | 47.64308 | 18.00327 | 27437 ft | 434 kts | 285° |
| 2026-05-05 17:33 | 47.65196 | 17.96080 | 26107 ft | 430 kts | 285° |
| 2026-05-05 17:34 | 47.66074 | 17.91863 | 24825 ft | 426 kts | 285° |
| 2026-05-05 17:34 | 47.66944 | 17.87677 | 23585 ft | 423 kts | 284° |
| 2026-05-05 17:34 | 47.67812 | 17.83494 | 22377 ft | 431 kts | 285° |
| 2026-05-05 17:34 | 47.68697 | 17.79216 | 21981 ft | 432 kts | 284° |
| 2026-05-05 17:35 | 47.69572 | 17.74981 | 21886 ft | 426 kts | 285° |
| 2026-05-05 17:35 | 47.70436 | 17.70793 | 21616 ft | 424 kts | 285° |
| 2026-05-05 17:35 | 47.71297 | 17.66614 | 21398 ft | 421 kts | 285° |
| 2026-05-05 17:35 | 47.72156 | 17.62457 | 21097 ft | 421 kts | 285° |
| 2026-05-05 17:36 | 47.73150 | 17.58373 | 20901 ft | 419 kts | 289° |
| 2026-05-05 17:36 | 47.74242 | 17.54374 | 20750 ft | 416 kts | 289° |
| 2026-05-05 17:36 | 47.75351 | 17.50412 | 20514 ft | 415 kts | 290° |
| 2026-05-05 17:36 | 47.76461 | 17.46450 | 20277 ft | 414 kts | 290° |
| 2026-05-05 17:37 | 47.77557 | 17.42506 | 20091 ft | 412 kts | 289° |
| 2026-05-05 17:37 | 47.78636 | 17.38579 | 19928 ft | 409 kts | 288° |
| 2026-05-05 17:37 | 47.79701 | 17.34656 | 19620 ft | 410 kts | 290° |
| 2026-05-05 17:37 | 47.80770 | 17.30715 | 19423 ft | 409 kts | 289° |
| 2026-05-05 17:38 | 47.81830 | 17.26788 | 19166 ft | 409 kts | 290° |
| 2026-05-05 17:38 | 47.82892 | 17.22838 | 18859 ft | 411 kts | 290° |
| 2026-05-05 17:38 | 47.83956 | 17.18885 | 18672 ft | 410 kts | 288° |
| 2026-05-05 17:38 | 47.85013 | 17.14954 | 18487 ft | 409 kts | 288° |
| 2026-05-05 17:39 | 47.86066 | 17.11019 | 18278 ft | 408 kts | 289° |
| 2026-05-05 17:39 | 47.87112 | 17.07114 | 18186 ft | 405 kts | 288° |
| 2026-05-05 17:39 | 47.88149 | 17.03233 | 18085 ft | 402 kts | 288° |
| 2026-05-05 17:39 | 47.89186 | 16.99341 | 17835 ft | 404 kts | 288° |
| 2026-05-05 17:40 | 47.90218 | 16.95454 | 17551 ft | 403 kts | 289° |
| 2026-05-05 17:40 | 47.91253 | 16.91563 | 17302 ft | 407 kts | 288° |
| 2026-05-05 17:40 | 47.92306 | 16.87582 | 17068 ft | 414 kts | 289° |
| 2026-05-05 17:40 | 47.93360 | 16.83602 | 16699 ft | 414 kts | 289° |
| 2026-05-05 17:41 | 47.94425 | 16.79576 | 16066 ft | 419 kts | 288° |
| 2026-05-05 17:41 | 47.95492 | 16.75545 | 15449 ft | 415 kts | 289° |
| 2026-05-05 17:41 | 47.96542 | 16.71563 | 14833 ft | 410 kts | 288° |
| 2026-05-05 17:41 | 47.97578 | 16.67627 | 14228 ft | 405 kts | 287° |
| 2026-05-05 17:42 | 47.98599 | 16.63741 | 13634 ft | 399 kts | 287° |
| 2026-05-05 17:42 | 47.99600 | 16.59920 | 12985 ft | 394 kts | 287° |
| 2026-05-05 17:42 | 48.00593 | 16.56127 | 12348 ft | 391 kts | 289° |
| 2026-05-05 17:42 | 48.01557 | 16.52460 | 11679 ft | 363 kts | 287° |
| 2026-05-05 17:43 | 48.02530 | 16.49138 | 11039 ft | 338 kts | 295° |
| 2026-05-05 17:43 | 48.03702 | 16.46219 | 10425 ft | 318 kts | 299° |
| 2026-05-05 17:43 | 48.04865 | 16.43511 | 9812 ft | 303 kts | 299° |
| 2026-05-05 17:43 | 48.05953 | 16.40891 | 9173 ft | 290 kts | 297° |
| 2026-05-05 17:44 | 48.06976 | 16.38365 | 8615 ft | 280 kts | 297° |
| 2026-05-05 17:44 | 48.07980 | 16.35848 | 8052 ft | 287 kts | 298° |
| 2026-05-05 17:44 | 48.09010 | 16.33263 | 7654 ft | 289 kts | 298° |
| 2026-05-05 17:44 | 48.10038 | 16.30680 | 7288 ft | 289 kts | 298° |
| 2026-05-05 17:45 | 48.11064 | 16.28097 | 6915 ft | 288 kts | 297° |
| 2026-05-05 17:45 | 48.12087 | 16.25524 | 6558 ft | 286 kts | 296° |
| 2026-05-05 17:45 | 48.12991 | 16.22904 | 6235 ft | 281 kts | 292° |
| 2026-05-05 17:45 | 48.13825 | 16.20307 | 5981 ft | 272 kts | 294° |
| 2026-05-05 17:46 | 48.15052 | 16.18147 | 5626 ft | 279 kts | 320° |
| 2026-05-05 17:46 | 48.16843 | 16.17029 | 5290 ft | 280 kts | 348° |
| 2026-05-05 17:46 | 48.18735 | 16.17223 | 4904 ft | 268 kts | 17° |
| 2026-05-05 17:46 | 48.20424 | 16.18325 | 4739 ft | 263 kts | 24° |
| 2026-05-05 17:47 | 48.22024 | 16.19539 | 4528 ft | 258 kts | 31° |
| 2026-05-05 17:47 | 48.23253 | 16.21435 | 4231 ft | 253 kts | 66° |
| 2026-05-05 17:47 | 48.23632 | 16.23908 | 4031 ft | 239 kts | 101° |
| 2026-05-05 17:47 | 48.23099 | 16.26150 | 3788 ft | 217 kts | 135° |
| 2026-05-05 17:48 | 48.22158 | 16.27786 | 3526 ft | 208 kts | 137° |
| 2026-05-05 17:48 | 48.21222 | 16.29417 | 3304 ft | 204 kts | 137° |
| 2026-05-05 17:48 | 48.20314 | 16.31010 | 3096 ft | 199 kts | 137° |
| 2026-05-05 17:48 | 48.19433 | 16.32573 | 2864 ft | 195 kts | 136° |
| 2026-05-05 17:49 | 48.18604 | 16.34137 | 2707 ft | 189 kts | 130° |
| 2026-05-05 17:49 | 48.17972 | 16.35855 | 2482 ft | 187 kts | 123° |
| 2026-05-05 17:49 | 48.17416 | 16.37572 | 2340 ft | 179 kts | 122° |
| 2026-05-05 17:49 | 48.16901 | 16.39278 | 2184 ft | 179 kts | 121° |
| 2026-05-05 17:50 | 48.16383 | 16.40934 | 2256 ft | 176 kts | 122° |
| 2026-05-05 17:50 | 48.15812 | 16.42586 | 2123 ft | 179 kts | 123° |
| 2026-05-05 17:50 | 48.15262 | 16.44209 | 1848 ft | 169 kts | 127° |
| 2026-05-05 17:50 | 48.14767 | 16.45721 | 1615 ft | 156 kts | 126° |
| 2026-05-05 17:51 | 48.14315 | 16.47115 | 1374 ft | 141 kts | 125° |
| 2026-05-05 17:51 | 48.13918 | 16.48354 | 1278 ft | 134 kts | 123° |
| 2026-05-05 17:51 | 48.13506 | 16.49611 | 1111 ft | 134 kts | 125° |
| 2026-05-05 17:51 | 48.13103 | 16.50863 | 987 ft | 135 kts | 124° |
| 2026-05-05 17:52 | 48.12701 | 16.52103 | 826 ft | 124 kts | 127° |
| 2026-05-05 17:52 | 48.12322 | 16.53225 | 661 ft | 118 kts | 124° |
| 2026-05-05 17:52 | 48.11981 | 16.54236 | 626 ft | 95 kts | 116° |
| 2026-05-05 17:52 | 48.11753 | 16.54960 | 625 ft | 59 kts | 116° |
| 2026-05-05 17:53 | 48.11605 | 16.55414 | 621 ft | 29 kts | 116° |
| 2026-05-05 17:53 | 48.11524 | 16.55689 | 624 ft | 24 kts | 106° |
| 2026-05-05 17:53 | 48.11501 | 16.55924 | 615 ft | 22 kts | 89° |
| 2026-05-05 17:53 | 48.11514 | 16.56087 | 621 ft | 15 kts | 70° |
| 2026-05-05 17:54 | 48.11558 | 16.56139 | 621 ft | 6 kts | 7° |
| 2026-05-05 17:54 | 48.11591 | 16.56101 | 624 ft | 7 kts | 294° |
| 2026-05-05 17:54 | 48.11610 | 16.56045 | 625 ft | 6 kts | 295° |
| 2026-05-05 17:54 | 48.11631 | 16.55988 | 628 ft | 7 kts | 312° |
| 2026-05-05 17:55 | 48.11670 | 16.55981 | 624 ft | 4 kts | 10° |
| 2026-05-05 17:55 | 48.11679 | 16.55985 | 626 ft | 0 kts | 19° |
| 2026-05-05 17:55 | 48.11685 | 16.55992 | 627 ft | 5 kts | 35° |
| 2026-05-05 17:55 | 48.11698 | 16.56049 | 624 ft | 6 kts | 76° |
| 2026-05-05 17:56 | 48.11748 | 16.56109 | 627 ft | 3 kts | 27° |
| 2026-05-05 17:56 | 48.11752 | 16.56112 | 625 ft | 1 kts | 27° |
| 2026-05-05 17:56 | 48.11756 | 16.56115 | 624 ft | 0 kts | 26° |